Time;durP1;ratioP1;P1;durP2;ratioP2;P2;SDS_P1;SDS_P2;PMS_P1;PMS_P2;Temp;Humidity;BMP_temperature;BMP_pressure;BME280_temperature;BME280_humidity;BME280_pressure;Samples;Min_cycle;Max_cycle;Signal;HPM_P1;HPM_P2
2021/08/22 00:00:31;;;;;;;19.52;10.30;;;17.20;99.90;;;;;;5036370;28;20069;-86
2021/08/22 00:02:59;;;;;;;12.05;10.40;;;17.20;99.90;;;;;;5060174;28;20076;-86
2021/08/22 00:05:25;;;;;;;38.42;11.30;;;17.20;99.90;;;;;;5065992;28;20047;-86
2021/08/22 00:07:51;;;;;;;15.07;10.20;;;17.10;99.90;;;;;;5032802;28;20404;-86
2021/08/22 00:10:17;;;;;;;30.25;11.52;;;17.10;99.90;;;;;;5056508;28;20033;-86
2021/08/22 00:12:43;;;;;;;11.70;9.45;;;17.10;99.90;;;;;;5011689;28;20444;-86
2021/08/22 00:15:10;;;;;;;16.88;12.23;;;17.10;99.90;;;;;;5050590;28;20041;-86
2021/08/22 00:17:35;;;;;;;19.80;12.48;;;17.00;99.90;;;;;;5030209;28;20045;-86
2021/08/22 00:20:02;;;;;;;28.55;11.18;;;17.00;99.90;;;;;;5036771;28;20424;-86
2021/08/22 00:22:28;;;;;;;16.98;12.85;;;17.00;99.90;;;;;;5051337;28;20447;-86
2021/08/22 00:24:54;;;;;;;17.10;13.27;;;16.90;99.90;;;;;;5050021;28;20049;-87
2021/08/22 00:27:20;;;;;;;19.15;13.23;;;16.90;99.90;;;;;;5034197;28;20533;-86
2021/08/22 00:29:45;;;;;;;23.67;12.75;;;16.90;99.90;;;;;;5065181;28;20378;-88
2021/08/22 00:32:11;;;;;;;27.67;13.75;;;16.90;99.90;;;;;;5067798;28;20043;-87
2021/08/22 00:34:37;;;;;;;20.10;13.10;;;16.80;99.90;;;;;;5056371;28;20048;-86
2021/08/22 00:37:03;;;;;;;33.55;13.40;;;16.80;99.90;;;;;;5036394;28;20040;-86
2021/08/22 00:39:29;;;;;;;26.20;12.80;;;16.80;99.90;;;;;;5066390;28;20064;-85
2021/08/22 00:41:56;;;;;;;22.02;13.60;;;16.80;99.90;;;;;;5064802;28;20116;-86
2021/08/22 00:44:23;;;;;;;34.75;15.32;;;16.80;99.90;;;;;;5050633;28;20139;-86
2021/08/22 00:46:56;;;;;;;18.55;14.32;;;16.90;99.90;;;;;;5031367;28;20135;-87
2021/08/22 00:49:26;;;;;;;18.55;14.68;;;16.80;99.90;;;;;;5033103;28;20045;-87
2021/08/22 00:51:52;;;;;;;33.20;14.65;;;16.80;99.90;;;;;;5049867;28;20048;-86
2021/08/22 00:54:19;;;;;;;29.92;14.70;;;16.90;99.90;;;;;;5050625;28;20147;-87
2021/08/22 00:56:49;;;;;;;74.85;15.30;;;16.80;99.90;;;;;;5055126;28;20040;-87
2021/08/22 00:59:16;;;;;;;;;;;16.90;99.90;;;;;;5029862;28;20122;-86
2021/08/22 01:01:47;;;;;;;32.17;13.73;;;16.90;99.90;;;;;;5041856;28;20376;-88
2021/08/22 01:04:47;;;;;;;19.48;14.60;;;16.90;99.90;;;;;;5032589;28;20120;-85
2021/08/22 01:07:22;;;;;;;23.80;15.68;;;16.90;99.90;;;;;;5042198;28;20110;-87
2021/08/22 01:09:50;;;;;;;19.67;13.32;;;17.00;99.90;;;;;;5040148;28;20037;-85
2021/08/22 01:12:31;;;;;;;23.25;15.80;;;17.00;99.90;;;;;;5024580;28;20072;-86
2021/08/22 01:15:03;;;;;;;19.40;14.95;;;17.00;99.90;;;;;;5049334;28;20473;-87
2021/08/22 01:17:31;;;;;;;46.22;15.40;;;17.00;99.90;;;;;;5045545;28;20064;-86
2021/08/22 01:20:03;;;;;;;21.50;14.20;;;17.00;99.90;;;;;;5049245;28;20052;-86
2021/08/22 01:22:30;;;;;;;20.50;14.23;;;17.00;99.90;;;;;;5032087;28;20484;-86
2021/08/22 01:24:57;;;;;;;67.70;15.82;;;17.10;99.90;;;;;;5048167;28;20064;-85
2021/08/22 01:27:24;;;;;;;20.15;14.95;;;17.10;99.90;;;;;;5060192;28;20032;-86
2021/08/22 01:30:01;;;;;;;20.83;14.20;;;17.10;99.90;;;;;;5031511;28;20040;-87
2021/08/22 01:32:34;;;;;;;16.13;13.90;;;17.10;99.90;;;;;;5044108;28;20053;-87
2021/08/22 01:35:00;;;;;;;20.35;14.27;;;17.20;99.90;;;;;;5064171;28;20427;-87
2021/08/22 01:37:27;;;;;;;22.50;12.65;;;17.10;99.90;;;;;;5049967;28;20128;-86
2021/08/22 01:39:53;;;;;;;28.02;15.07;;;17.10;99.90;;;;;;5048793;28;20488;-85
2021/08/22 01:42:19;;;;;;;22.52;14.82;;;17.10;99.90;;;;;;5065112;28;20048;-86
2021/08/22 01:44:45;;;;;;;25.02;15.02;;;17.10;99.90;;;;;;5015446;28;20037;-86
2021/08/22 01:47:11;;;;;;;23.50;14.55;;;17.10;99.90;;;;;;5064546;28;20126;-87
2021/08/22 01:49:40;;;;;;;34.53;14.35;;;17.10;99.90;;;;;;5063021;28;20048;-87
2021/08/22 01:52:07;;;;;;;20.23;13.85;;;17.10;99.90;;;;;;5048984;28;20103;-88
2021/08/22 01:54:36;;;;;;;20.27;14.88;;;17.10;99.90;;;;;;5028221;28;20064;-87
2021/08/22 01:57:03;;;;;;;18.73;12.93;;;17.10;99.90;;;;;;5051752;28;20041;-87
2021/08/22 01:59:28;;;;;;;21.88;13.32;;;17.00;99.90;;;;;;5048552;28;20044;-87
2021/08/22 02:01:54;;;;;;;21.60;13.25;;;17.00;99.90;;;;;;5046558;28;20472;-87
2021/08/22 02:04:30;;;;;;;20.95;15.85;;;17.00;99.90;;;;;;5064910;28;20392;-86
2021/08/22 02:07:02;;;;;;;17.73;14.93;;;17.00;99.90;;;;;;5045158;28;21262;-86
2021/08/22 02:09:36;;;;;;;26.55;13.88;;;17.00;99.90;;;;;;5025932;28;20037;-86
2021/08/22 02:12:07;;;;;;;20.30;13.90;;;17.00;99.90;;;;;;5020209;28;20394;-86
2021/08/22 02:14:35;;;;;;;26.38;13.43;;;17.00;99.90;;;;;;5030784;28;20033;-86
2021/08/22 02:17:03;;;;;;;33.40;12.48;;;17.00;99.90;;;;;;5030759;28;20393;-85
2021/08/22 02:19:30;;;;;;;21.00;13.95;;;17.00;99.90;;;;;;5049091;28;20037;-85
2021/08/22 02:21:57;;;;;;;18.02;13.27;;;17.00;99.90;;;;;;5030704;28;20063;-85
2021/08/22 02:24:24;;;;;;;16.88;12.63;;;17.00;99.90;;;;;;5048769;28;20103;-86
2021/08/22 02:26:50;;;;;;;19.92;12.55;;;17.00;99.90;;;;;;5037865;28;20534;-87
2021/08/22 02:29:16;;;;;;;25.27;12.60;;;17.00;99.90;;;;;;5053775;28;20083;-86
2021/08/22 02:31:42;;;;;;;27.58;12.15;;;17.10;99.90;;;;;;5064166;28;20908;-87
2021/08/22 02:34:08;;;;;;;27.20;12.10;;;17.00;99.90;;;;;;5047903;28;20119;-86
2021/08/22 02:36:33;;;;;;;18.40;12.27;;;17.10;99.90;;;;;;5031068;28;20484;-85
2021/08/22 02:38:59;;;;;;;16.05;11.60;;;17.10;99.90;;;;;;5047311;28;20048;-86
2021/08/22 02:41:25;;;;;;;17.52;11.73;;;17.10;99.90;;;;;;5048639;28;20111;-86
2021/08/22 02:43:53;;;;;;;15.35;11.73;;;17.10;99.90;;;;;;5064357;28;21728;-88
2021/08/22 02:46:19;;;;;;;13.52;11.70;;;17.10;99.90;;;;;;5048638;28;20493;-87
2021/08/22 02:48:45;;;;;;;16.23;10.77;;;17.10;99.90;;;;;;5048767;28;20370;-86
2021/08/22 02:51:11;;;;;;;27.52;11.50;;;17.10;99.90;;;;;;5047942;28;20087;-86
2021/08/22 02:53:37;;;;;;;14.63;9.65;;;17.10;99.90;;;;;;5048296;28;20048;-86
2021/08/22 02:56:03;;;;;;;19.50;10.55;;;17.10;99.90;;;;;;5047410;28;20045;-87
2021/08/22 02:58:29;;;;;;;24.00;9.88;;;17.10;99.90;;;;;;5030452;28;20404;-86
2021/08/22 03:00:55;;;;;;;12.73;11.20;;;17.10;99.90;;;;;;5030435;28;20041;-88
2021/08/22 03:03:21;;;;;;;12.48;10.32;;;17.10;99.90;;;;;;5030863;28;20156;-86
2021/08/22 03:05:47;;;;;;;13.00;10.50;;;17.10;99.90;;;;;;5047412;28;20499;-86
2021/08/22 03:08:15;;;;;;;17.83;11.00;;;17.00;99.90;;;;;;5030198;28;20041;-86
2021/08/22 03:10:44;;;;;;;14.40;11.23;;;17.00;99.90;;;;;;5052161;28;20132;-86
2021/08/22 03:13:10;;;;;;;14.98;10.60;;;17.00;99.90;;;;;;5050180;28;20140;-88
2021/08/22 03:15:35;;;;;;;15.32;10.70;;;17.00;99.90;;;;;;5067693;28;20120;-87
2021/08/22 03:18:01;;;;;;;13.60;10.55;;;17.00;99.90;;;;;;5067255;28;20049;-86
2021/08/22 03:20:27;;;;;;;17.50;10.50;;;17.00;99.90;;;;;;5034614;28;20102;-86
2021/08/22 03:22:53;;;;;;;16.70;12.45;;;17.00;99.90;;;;;;5066604;28;20539;-86
2021/08/22 03:25:19;;;;;;;19.63;14.48;;;17.00;99.90;;;;;;5051855;28;20374;-87
2021/08/22 03:27:45;;;;;;;18.70;12.90;;;17.00;99.90;;;;;;5062958;28;20047;-87
2021/08/22 03:30:11;;;;;;;18.02;13.73;;;17.00;99.90;;;;;;5051419;28;20059;-86
2021/08/22 03:32:37;;;;;;;18.02;13.30;;;17.00;99.90;;;;;;5033852;28;20044;-86
2021/08/22 03:35:04;;;;;;;16.50;13.85;;;17.00;99.90;;;;;;5051313;28;20048;-85
2021/08/22 03:37:29;;;;;;;17.05;13.00;;;17.00;99.90;;;;;;5067372;28;20043;-85
2021/08/22 03:39:55;;;;;;;16.23;10.93;;;17.00;99.90;;;;;;5067265;28;20045;-88
2021/08/22 03:42:21;;;;;;;13.82;12.43;;;17.00;99.90;;;;;;5066500;28;20045;-86
2021/08/22 03:44:47;;;;;;;17.08;13.13;;;17.00;99.90;;;;;;5033962;28;20049;-87
2021/08/22 03:47:12;;;;;;;24.38;11.10;;;17.00;99.90;;;;;;5033369;28;20392;-86
2021/08/22 03:49:38;;;;;;;15.57;10.18;;;16.90;99.90;;;;;;5066988;28;20060;-87
2021/08/22 03:52:04;;;;;;;18.15;11.52;;;16.90;99.90;;;;;;5051006;28;20051;-87
2021/08/22 03:54:30;;;;;;;13.93;10.93;;;16.90;99.90;;;;;;5043975;28;20061;-87
2021/08/22 03:56:57;;;;;;;16.58;10.80;;;16.90;99.90;;;;;;5051793;28;20047;-88
2021/08/22 03:59:23;;;;;;;21.77;10.63;;;16.80;99.90;;;;;;5031335;28;20124;-86
2021/08/22 04:01:48;;;;;;;20.50;11.25;;;16.90;99.90;;;;;;5066650;28;20057;-86
2021/08/22 04:04:14;;;;;;;20.48;10.60;;;16.90;99.90;;;;;;5032740;28;20076;-87
2021/08/22 04:06:47;;;;;;;18.88;10.68;;;16.90;99.90;;;;;;5013690;28;20059;-86
2021/08/22 04:09:13;;;;;;;15.57;11.38;;;16.90;99.90;;;;;;5033043;28;20427;-86
2021/08/22 04:11:39;;;;;;;15.55;11.38;;;16.80;99.90;;;;;;5033533;28;20037;-87
2021/08/22 04:14:08;;;;;;;13.13;11.45;;;16.80;99.90;;;;;;5032434;28;20041;-86
2021/08/22 04:16:37;;;;;;;16.38;12.05;;;16.80;99.90;;;;;;5066439;28;20045;-86
2021/08/22 04:19:03;;;;;;;16.70;11.73;;;16.80;99.90;;;;;;5048644;28;20052;-86
2021/08/22 04:21:30;;;;;;;14.38;11.43;;;16.80;99.90;;;;;;5050537;28;20401;-85
2021/08/22 04:23:58;;;;;;;16.70;12.48;;;16.80;99.90;;;;;;5065898;28;20048;-86
2021/08/22 04:26:23;;;;;;;16.58;12.57;;;16.80;99.90;;;;;;5036302;28;20036;-86
2021/08/22 04:28:49;;;;;;;16.75;13.65;;;16.80;99.90;;;;;;5026433;28;20079;-88
2021/08/22 04:31:15;;;;;;;30.63;15.32;;;16.80;99.90;;;;;;5033942;28;20071;-87
2021/08/22 04:33:41;;;;;;;17.83;14.32;;;16.80;99.90;;;;;;5049624;28;20051;-86
2021/08/22 04:36:06;;;;;;;21.38;13.90;;;16.70;99.90;;;;;;5049713;28;20041;-87
2021/08/22 04:38:35;;;;;;;22.17;14.57;;;16.70;99.90;;;;;;5050947;28;20114;-87
2021/08/22 04:41:01;;;;;;;20.08;15.10;;;16.70;99.90;;;;;;5032611;28;20102;-87
2021/08/22 04:43:26;;;;;;;24.17;16.42;;;16.70;99.90;;;;;;5050070;28;20045;-86
2021/08/22 04:45:52;;;;;;;21.23;14.20;;;16.60;99.90;;;;;;5066102;28;20059;-85
2021/08/22 04:48:18;;;;;;;19.95;15.25;;;16.60;99.90;;;;;;5048380;28;20068;-86
2021/08/22 04:50:44;;;;;;;21.67;16.10;;;16.60;99.90;;;;;;5065472;28;20136;-86
2021/08/22 04:53:10;;;;;;;28.55;16.30;;;16.60;99.90;;;;;;5031148;28;20139;-87
2021/08/22 04:55:36;;;;;;;43.13;17.42;;;16.50;99.90;;;;;;5049233;28;20124;-87
2021/08/22 04:58:02;;;;;;;32.00;15.75;;;16.50;99.90;;;;;;5065825;28;20496;-87
2021/08/22 05:00:28;;;;;;;38.28;14.95;;;16.50;99.90;;;;;;5049736;28;20047;-85
2021/08/22 05:02:54;;;;;;;30.27;15.70;;;16.40;99.90;;;;;;5065601;28;20044;-87
2021/08/22 05:05:20;;;;;;;31.70;16.23;;;16.40;99.90;;;;;;5064752;28;20427;-86
2021/08/22 05:07:45;;;;;;;26.05;15.38;;;16.40;99.90;;;;;;5065762;28;20045;-86
2021/08/22 05:10:11;;;;;;;26.70;16.00;;;16.40;99.90;;;;;;5053253;28;20111;-86
2021/08/22 05:12:37;;;;;;;23.27;14.43;;;16.40;99.90;;;;;;5047956;28;20032;-86
2021/08/22 05:15:06;;;;;;;32.20;16.85;;;16.40;99.90;;;;;;5048018;28;20056;-87
2021/08/22 05:17:32;;;;;;;29.20;15.00;;;16.40;99.90;;;;;;5032100;28;20040;-85
2021/08/22 05:19:58;;;;;;;35.42;15.13;;;16.30;99.90;;;;;;5065526;28;20045;-86
2021/08/22 05:22:24;;;;;;;26.70;16.02;;;16.40;99.90;;;;;;5049281;28;20692;-86
2021/08/22 05:24:50;;;;;;;30.27;17.30;;;16.30;99.90;;;;;;5032270;28;20456;-88
2021/08/22 05:27:16;;;;;;;50.50;14.70;;;16.30;99.90;;;;;;5032490;28;20049;-87
2021/08/22 05:29:41;;;;;;;32.45;18.20;;;16.30;99.90;;;;;;5028316;28;20045;-87
2021/08/22 05:32:07;;;;;;;34.47;17.63;;;16.30;99.90;;;;;;5027931;28;20484;-87
2021/08/22 05:34:33;;;;;;;37.28;16.95;;;16.30;99.90;;;;;;5061384;28;20037;-86
2021/08/22 05:36:59;;;;;;;27.13;16.77;;;16.20;99.90;;;;;;5065224;28;20091;-86
2021/08/22 05:39:25;;;;;;;33.20;16.85;;;16.20;99.90;;;;;;5047546;28;20619;-86
2021/08/22 05:41:50;;;;;;;30.00;15.70;;;16.20;99.90;;;;;;5049233;28;20103;-85
2021/08/22 05:44:16;;;;;;;36.63;15.35;;;16.20;99.90;;;;;;5032834;28;20041;-84
2021/08/22 05:46:42;;;;;;;37.35;17.05;;;16.20;99.90;;;;;;5051060;28;20040;-85
2021/08/22 05:49:11;;;;;;;46.40;19.00;;;16.20;99.90;;;;;;5063959;28;20093;-84
2021/08/22 05:51:37;;;;;;;35.70;14.63;;;16.20;99.90;;;;;;5049599;28;20116;-85
2021/08/22 05:54:03;;;;;;;28.70;15.43;;;16.20;99.90;;;;;;5064401;28;20052;-85
2021/08/22 05:56:28;;;;;;;51.38;17.52;;;16.20;99.90;;;;;;5064968;28;20033;-85
2021/08/22 05:58:55;;;;;;;29.63;15.65;;;16.20;99.90;;;;;;5064892;28;20465;-85
2021/08/22 06:01:20;;;;;;;30.00;14.32;;;16.20;99.90;;;;;;5062299;28;20037;-85
2021/08/22 06:03:46;;;;;;;33.72;15.50;;;16.20;99.90;;;;;;5048672;28;20496;-86
2021/08/22 06:06:12;;;;;;;32.08;16.67;;;16.10;99.90;;;;;;5048334;28;20393;-85
2021/08/22 06:08:38;;;;;;;33.47;16.73;;;16.10;99.90;;;;;;5064583;28;20548;-86
2021/08/22 06:11:04;;;;;;;34.35;16.10;;;16.10;99.90;;;;;;5035307;28;20044;-86
2021/08/22 06:13:30;;;;;;;44.53;16.38;;;16.10;99.90;;;;;;5048171;28;20037;-85
2021/08/22 06:15:56;;;;;;;47.58;18.70;;;16.10;99.90;;;;;;5048883;28;20124;-86
2021/08/22 06:18:22;;;;;;;48.28;18.02;;;16.20;99.90;;;;;;5013421;28;20051;-87
2021/08/22 06:20:48;;;;;;;46.05;17.33;;;16.10;99.90;;;;;;5031251;28;20036;-84
2021/08/22 06:23:14;;;;;;;47.80;18.17;;;16.10;99.90;;;;;;5063847;28;20045;-85
2021/08/22 06:25:39;;;;;;;46.67;17.40;;;16.10;99.90;;;;;;5048740;28;20402;-84
2021/08/22 06:28:05;;;;;;;52.53;17.88;;;16.10;99.90;;;;;;5075433;28;20071;-85
2021/08/22 06:30:31;;;;;;;67.45;19.50;;;16.10;99.90;;;;;;5063457;28;20132;-84
2021/08/22 06:32:58;;;;;;;39.72;15.13;;;16.10;99.90;;;;;;5063573;28;20041;-85
2021/08/22 06:35:23;;;;;;;45.15;16.98;;;16.10;99.90;;;;;;5030514;28;20049;-85
2021/08/22 06:37:51;;;;;;;34.05;15.60;;;16.10;99.90;;;;;;5048955;28;20048;-85
2021/08/22 06:40:17;;;;;;;37.75;16.45;;;16.20;99.90;;;;;;5026806;28;20508;-86
2021/08/22 06:42:44;;;;;;;41.00;16.13;;;16.20;99.90;;;;;;5042646;28;20041;-85
2021/08/22 06:45:10;;;;;;;59.08;16.90;;;16.20;99.90;;;;;;5048810;28;20059;-86
2021/08/22 06:47:36;;;;;;;34.00;16.10;;;16.20;99.90;;;;;;5052160;28;20042;-85
2021/08/22 06:50:03;;;;;;;34.03;17.27;;;16.30;99.90;;;;;;5052082;28;20049;-85
2021/08/22 06:52:29;;;;;;;23.63;15.10;;;16.40;99.90;;;;;;5052280;28;20094;-85
2021/08/22 06:54:54;;;;;;;29.33;14.55;;;16.50;99.90;;;;;;5051111;28;20057;-86
2021/08/22 06:57:20;;;;;;;30.67;15.48;;;16.40;99.90;;;;;;5033420;28;20049;-85
2021/08/22 06:59:47;;;;;;;22.75;12.32;;;16.50;99.90;;;;;;5066396;28;20041;-85
2021/08/22 07:02:12;;;;;;;21.80;13.50;;;16.40;99.90;;;;;;5051040;28;20040;-86
2021/08/22 07:04:39;;;;;;;24.25;13.35;;;16.40;99.90;;;;;;5067460;28;20052;-86
2021/08/22 07:07:05;;;;;;;24.42;12.82;;;16.40;99.90;;;;;;5052032;28;20037;-83
2021/08/22 07:09:30;;;;;;;18.70;12.32;;;16.40;99.90;;;;;;5045401;28;20049;-85
2021/08/22 07:11:58;;;;;;;17.63;12.40;;;16.30;99.90;;;;;;5044749;28;20040;-83
2021/08/22 07:14:24;;;;;;;27.60;15.00;;;16.30;99.90;;;;;;5051325;28;20037;-84
2021/08/22 07:16:50;;;;;;;20.60;12.98;;;16.30;99.90;;;;;;5052310;28;20807;-84
2021/08/22 07:19:15;;;;;;;22.60;12.45;;;16.20;99.90;;;;;;5066652;28;20162;-85
2021/08/22 07:21:41;;;;;;;29.67;13.85;;;16.20;99.90;;;;;;5034236;28;20045;-84
2021/08/22 07:24:07;;;;;;;41.97;12.68;;;16.20;99.90;;;;;;5051891;28;20124;-84
2021/08/22 07:26:33;;;;;;;27.27;13.13;;;16.20;99.90;;;;;;5052608;28;20485;-84
2021/08/22 07:28:59;;;;;;;29.45;14.05;;;16.20;99.90;;;;;;5052121;28;20048;-83
2021/08/22 07:31:25;;;;;;;21.15;12.65;;;16.20;99.90;;;;;;5066477;28;20037;-84
2021/08/22 07:33:51;;;;;;;22.33;14.45;;;16.20;99.90;;;;;;5067544;28;20102;-83
2021/08/22 07:36:17;;;;;;;16.77;12.63;;;16.20;99.90;;;;;;5051442;28;20051;-84
2021/08/22 07:38:43;;;;;;;24.63;16.13;;;16.30;99.90;;;;;;5064648;28;20032;-83
2021/08/22 07:41:13;;;;;;;26.48;15.85;;;16.30;99.90;;;;;;5066794;28;20045;-82
2021/08/22 07:43:42;;;;;;;24.88;14.35;;;16.30;99.90;;;;;;5051319;28;20227;-83
2021/08/22 07:46:08;;;;;;;23.90;14.40;;;16.40;99.90;;;;;;5066907;28;20040;-83
2021/08/22 07:48:34;;;;;;;25.23;14.27;;;16.40;99.90;;;;;;5050717;28;20052;-84
2021/08/22 07:51:00;;;;;;;20.77;14.50;;;16.40;99.90;;;;;;5067065;28;20123;-84
2021/08/22 07:53:26;;;;;;;20.17;14.45;;;16.40;99.90;;;;;;5050118;28;20653;-83
2021/08/22 07:55:51;;;;;;;16.58;12.45;;;16.40;99.90;;;;;;5066142;28;20103;-84
2021/08/22 07:58:17;;;;;;;23.95;15.23;;;16.40;99.90;;;;;;5063423;28;20052;-83
2021/08/22 08:00:44;;;;;;;20.00;13.07;;;16.40;99.90;;;;;;5049684;28;20128;-83
2021/08/22 08:03:10;;;;;;;24.65;13.00;;;16.50;99.90;;;;;;5067210;28;20898;-84
2021/08/22 08:05:36;;;;;;;23.55;13.65;;;16.50;99.90;;;;;;5050408;28;20041;-83
2021/08/22 08:08:02;;;;;;;23.00;13.85;;;16.50;99.90;;;;;;5052986;28;20060;-85
2021/08/22 08:10:28;;;;;;;19.83;14.07;;;16.60;99.90;;;;;;5018995;28;20132;-84
2021/08/22 08:12:54;;;;;;;18.42;12.55;;;16.70;99.90;;;;;;5050878;28;20965;-84
2021/08/22 08:15:22;;;;;;;21.75;12.65;;;16.80;99.90;;;;;;5050417;28;20061;-86
2021/08/22 08:17:48;;;;;;;21.45;12.60;;;16.80;99.90;;;;;;5046193;28;20373;-84
2021/08/22 08:20:13;;;;;;;17.92;13.48;;;16.80;99.90;;;;;;5041449;28;20429;-84
2021/08/22 08:22:39;;;;;;;25.42;12.45;;;16.90;99.90;;;;;;5042226;28;20620;-83
2021/08/22 08:25:06;;;;;;;19.92;12.85;;;16.80;99.90;;;;;;5051196;28;20063;-84
2021/08/22 08:27:34;;;;;;;20.73;12.38;;;16.80;99.90;;;;;;5075667;28;20045;-83
2021/08/22 08:30:00;;;;;;;16.92;11.88;;;16.80;99.90;;;;;;5050136;28;20094;-84
2021/08/22 08:32:26;;;;;;;17.13;11.35;;;16.70;99.90;;;;;;5065567;28;20048;-85
2021/08/22 08:34:52;;;;;;;17.63;11.65;;;16.70;99.90;;;;;;5066393;28;20041;-84
2021/08/22 08:37:19;;;;;;;20.42;11.75;;;16.70;99.90;;;;;;5050945;28;20073;-84
2021/08/22 08:39:45;;;;;;;22.08;12.98;;;16.60;99.90;;;;;;5053682;28;20080;-83
2021/08/22 08:42:35;;;;;;;26.40;13.18;;;16.60;99.90;;;;;;5065653;28;20493;-85
2021/08/22 08:45:01;;;;;;;15.23;11.30;;;16.60;99.90;;;;;;5066194;28;20048;-84
2021/08/22 08:47:30;;;;;;;16.80;10.68;;;16.60;99.90;;;;;;5050042;28;20041;-83
2021/08/22 08:50:00;;;;;;;17.90;11.63;;;16.50;99.90;;;;;;5050628;28;20482;-83
2021/08/22 08:52:30;;;;;;;14.70;11.30;;;16.60;99.90;;;;;;5049517;28;20417;-85
2021/08/22 08:55:10;;;;;;;13.07;10.13;;;16.50;99.90;;;;;;5050432;28;20439;-85
2021/08/22 08:57:35;;;;;;;;;;;16.50;99.90;;;;;;5051122;28;20067;-84
2021/08/22 09:00:02;;;;;;;13.13;10.25;;;16.60;99.90;;;;;;5065361;28;20013;-84
2021/08/22 09:02:28;;;;;;;13.25;10.52;;;16.60;99.90;;;;;;5071465;28;20050;-82
2021/08/22 09:05:14;;;;;;;13.00;9.30;;;16.60;99.90;;;;;;5053919;28;20119;-82
2021/08/22 09:08:04;;;;;;;12.80;8.07;;;16.70;99.90;;;;;;5038574;28;20187;-84
2021/08/22 09:11:03;;;;;;;10.23;8.50;;;16.60;99.90;;;;;;5033961;28;20996;-86
2021/08/22 09:13:48;;;;;;;16.67;8.83;;;16.60;99.90;;;;;;5048334;28;20041;-86
2021/08/22 09:16:32;;;;;;;17.08;9.48;;;16.60;99.90;;;;;;5048907;28;20291;-86
2021/08/22 09:19:37;;;;;;;15.27;9.30;;;16.70;99.90;;;;;;5048864;28;20076;-85
2021/08/22 09:22:15;;;;;;;14.52;7.50;;;16.80;99.90;;;;;;5024052;28;20500;-87
2021/08/22 09:25:06;;;;;;;15.10;6.63;;;16.70;99.90;;;;;;5049236;28;20041;-86
2021/08/22 09:28:09;;;;;;;11.18;6.18;;;16.80;99.90;;;;;;5047676;28;20091;-85
2021/08/22 09:30:54;;;;;;;17.13;7.10;;;16.80;99.90;;;;;;5048891;28;20036;-86
2021/08/22 09:33:46;;;;;;;16.48;6.20;;;16.80;99.90;;;;;;5034839;28;20045;-84
2021/08/22 09:36:24;;;;;;;16.17;6.07;;;16.80;99.90;;;;;;5049775;28;20052;-86
2021/08/22 09:39:20;;;;;;;10.13;5.88;;;16.90;99.90;;;;;;5048032;28;20415;-85
2021/08/22 09:42:07;;;;;;;10.35;5.93;;;16.90;99.90;;;;;;5048497;28;20041;-87
2021/08/22 09:45:30;;;;;;;13.55;6.82;;;16.80;99.90;;;;;;5047359;28;20106;-85
2021/08/22 09:48:27;;;;;;;14.50;7.45;;;16.80;99.90;;;;;;5031443;28;20122;-85
2021/08/22 09:51:09;;;;;;;12.35;7.55;;;16.90;99.90;;;;;;5048414;28;20036;-85
2021/08/22 09:54:08;;;;;;;9.73;7.40;;;16.80;99.90;;;;;;5030340;28;20065;-85
2021/08/22 09:57:00;;;;;;;9.75;6.10;;;17.00;99.90;;;;;;5049031;28;20459;-82
2021/08/22 10:00:02;;;;;;;11.27;6.65;;;17.00;99.90;;;;;;5047689;28;20036;-82
2021/08/22 10:03:01;;;;;;;7.30;5.55;;;17.10;99.90;;;;;;5054567;28;20128;-84
2021/08/22 10:05:31;;;;;;;9.98;5.68;;;17.20;99.90;;;;;;5047793;28;20045;-84
2021/08/22 10:07:57;;;;;;;;;;;17.20;99.90;;;;;;5049758;28;20048;-81
2021/08/22 10:10:28;;;;;;;5.40;4.90;;;17.20;99.90;;;;;;5032439;28;19924;-82
2021/08/22 10:12:54;;;;;;;6.15;5.38;;;17.40;99.90;;;;;;5049793;28;20052;-82
2021/08/22 10:15:21;;;;;;;5.72;4.97;;;17.50;99.90;;;;;;5065796;28;20040;-82
2021/08/22 10:17:47;;;;;;;7.80;5.47;;;17.50;99.90;;;;;;5048116;28;20115;-82
2021/08/22 10:20:14;;;;;;;9.75;5.78;;;17.70;99.90;;;;;;5049127;28;20041;-82
2021/08/22 10:22:40;;;;;;;8.68;6.47;;;17.70;99.90;;;;;;5046648;28;20049;-83
2021/08/22 10:25:18;;;;;;;8.13;6.38;;;17.90;99.90;;;;;;5064128;28;20506;-82
2021/08/22 10:27:56;;;;;;;7.40;6.28;;;17.90;99.90;;;;;;5047707;28;20134;-84
2021/08/22 10:30:24;;;;;;;11.18;8.23;;;18.00;99.90;;;;;;5048653;28;20103;-84
2021/08/22 10:32:58;;;;;;;12.65;8.13;;;18.10;99.90;;;;;;5047877;28;20048;-83
2021/08/22 10:35:31;;;;;;;11.85;7.80;;;18.10;99.90;;;;;;5048799;28;20143;-83
2021/08/22 10:38:24;;;;;;;15.02;10.00;;;18.20;99.90;;;;;;5047180;28;20037;-83
2021/08/22 10:40:51;;;;;;;13.88;9.93;;;18.40;99.90;;;;;;5030306;28;20039;-83
2021/08/22 10:43:22;;;;;;;13.05;9.80;;;18.50;99.90;;;;;;5047545;28;20052;-84
2021/08/22 10:45:50;;;;;;;15.32;10.95;;;18.60;99.90;;;;;;5046029;28;20049;-84
2021/08/22 10:48:22;;;;;;;16.30;12.30;;;18.80;99.90;;;;;;5048739;28;20507;-84
2021/08/22 10:50:57;;;;;;;17.80;12.38;;;18.90;99.90;;;;;;5062875;28;20072;-84
2021/08/22 10:53:30;;;;;;;16.20;12.55;;;19.10;99.90;;;;;;5063545;28;20127;-84
2021/08/22 10:55:57;;;;;;;19.83;13.60;;;19.10;99.90;;;;;;5035796;28;20042;-84
2021/08/22 10:58:58;;;;;;;27.55;16.35;;;19.20;99.90;;;;;;5042776;28;20045;-84
2021/08/22 11:01:28;;;;;;;36.15;19.27;;;19.10;99.90;;;;;;5063923;28;20045;-84
2021/08/22 11:04:18;;;;;;;33.97;20.27;;;19.20;99.90;;;;;;5046642;28;20108;-83
2021/08/22 11:06:55;;;;;;;36.13;20.05;;;19.20;99.90;;;;;;5045140;28;20044;-84
2021/08/22 11:09:44;;;;;;;34.53;20.92;;;19.20;99.90;;;;;;5043830;28;20034;-84
2021/08/22 11:12:22;;;;;;;33.67;19.08;;;19.20;99.90;;;;;;5038336;28;20102;-84
2021/08/22 11:14:47;;;;;;;26.23;17.75;;;19.10;99.90;;;;;;5035290;28;20397;-84
2021/08/22 11:17:13;;;;;;;24.73;16.55;;;19.10;99.90;;;;;;5048508;28;20045;-84
2021/08/22 11:19:39;;;;;;;28.35;17.58;;;19.00;99.90;;;;;;5062528;28;20386;-86
2021/08/22 11:22:27;;;;;;;39.45;20.90;;;18.90;99.90;;;;;;5030538;28;20511;-84
2021/08/22 11:24:55;;;;;;;37.78;20.98;;;18.90;99.90;;;;;;5048048;28;20041;-84
2021/08/22 11:27:22;;;;;;;36.17;20.83;;;18.90;99.90;;;;;;5030573;28;20052;-84
2021/08/22 11:30:11;;;;;;;30.25;20.75;;;18.90;99.90;;;;;;5045828;28;20041;-84
2021/08/22 11:32:47;;;;;;;33.88;21.33;;;18.80;99.90;;;;;;5046766;28;20048;-85
2021/08/22 11:35:24;;;;;;;38.45;22.42;;;18.80;99.90;;;;;;5052046;28;20041;-84
2021/08/22 11:37:52;;;;;;;29.13;19.52;;;18.90;99.90;;;;;;5049231;28;20051;-84
2021/08/22 11:40:21;;;;;;;33.47;19.67;;;18.90;99.90;;;;;;5033660;28;20143;-84
2021/08/22 11:42:49;;;;;;;32.47;18.77;;;18.90;99.90;;;;;;5049690;28;20519;-85
2021/08/22 11:45:17;;;;;;;27.67;18.25;;;19.10;99.90;;;;;;5034308;28;20052;-84
2021/08/22 11:47:44;;;;;;;24.75;17.35;;;19.20;99.90;;;;;;5032782;28;20044;-84
2021/08/22 11:50:12;;;;;;;19.67;14.80;;;19.30;99.90;;;;;;5051320;28;20067;-83
2021/08/22 11:52:47;;;;;;;22.52;15.15;;;19.30;99.90;;;;;;5050701;28;20481;-86
2021/08/22 11:55:14;;;;;;;22.75;14.13;;;19.50;99.90;;;;;;5030789;28;20044;-84
2021/08/22 11:57:43;;;;;;;19.45;13.07;;;19.50;99.90;;;;;;5044733;28;20061;-85
2021/08/22 12:00:12;;;;;;;18.20;13.13;;;19.70;99.90;;;;;;5051119;28;20048;-83
2021/08/22 12:02:38;;;;;;;14.13;11.02;;;19.80;99.90;;;;;;5050924;28;20037;-84
2021/08/22 12:05:19;;;;;;;13.35;10.65;;;19.80;99.90;;;;;;5015967;28;20384;-84
2021/08/22 12:07:46;;;;;;;13.10;10.10;;;19.90;99.90;;;;;;5049864;28;20052;-84
2021/08/22 12:10:27;;;;;;;11.02;8.98;;;20.10;99.90;;;;;;5050567;28;20065;-84
2021/08/22 12:12:54;;;;;;;10.88;8.85;;;20.20;99.90;;;;;;5049801;28;20029;-84
2021/08/22 12:15:28;;;;;;;11.18;8.80;;;20.50;99.90;;;;;;5050792;28;20040;-85
2021/08/22 12:18:15;;;;;;;11.57;8.75;;;20.70;99.90;;;;;;5049831;28;20037;-83
2021/08/22 12:20:42;;;;;;;12.50;9.10;;;21.00;99.90;;;;;;5050282;28;20037;-86
2021/08/22 12:23:10;;;;;;;12.60;9.43;;;21.20;99.90;;;;;;5047391;28;20095;-84
2021/08/22 12:25:37;;;;;;;10.02;9.02;;;21.50;99.90;;;;;;5045228;28;20489;-84
2021/08/22 12:28:23;;;;;;;12.15;8.10;;;21.50;99.90;;;;;;5050142;28;20029;-84
2021/08/22 12:31:04;;;;;;;9.55;8.65;;;21.40;99.90;;;;;;5049753;28;20207;-84
2021/08/22 12:33:38;;;;;;;9.32;8.43;;;21.40;99.90;;;;;;5049831;28;20135;-85
2021/08/22 12:36:13;;;;;;;9.75;8.75;;;21.50;99.90;;;;;;5049835;28;20099;-83
2021/08/22 12:38:46;;;;;;;9.52;8.63;;;21.50;99.90;;;;;;5050647;28;20075;-84
2021/08/22 12:41:36;;;;;;;10.07;8.45;;;21.30;99.90;;;;;;5050436;28;20052;-84
2021/08/22 12:44:04;;;;;;;13.32;9.70;;;21.20;99.90;;;;;;5049492;28;20045;-83